GLD1793 SBJR-SDCZ
Flight info
| Callsign | GLD1793 |
|---|---|
| Flight time | 0h 21m |
| Altitude | 2000 |
| Route | SDCZ |
| Aircraft | C172/M-SDFGIRY/S |
Departure
| Time | 2026-05-06 00:07 |
|---|---|
| Airport | Jacarepaguá - Roberto Marinho Airport (SBJR) |
Arrival
| Time | 2026-05-06 00:29 |
|---|---|
| Airport | Fazenda Bom Jardim Airport (SDCZ) |
| Time | Latitude | Longitude | Altitude | Speed | Heading |
|---|---|---|---|---|---|
| 2026-05-06 00:01 | -22.98889 | -43.37113 | 10 ft | 0 kts | 1° |
| 2026-05-06 00:03 | -22.98875 | -43.37134 | 10 ft | 5 kts | 236° |
| 2026-05-06 00:03 | -22.98905 | -43.37144 | 10 ft | 4 kts | 179° |
| 2026-05-06 00:03 | -22.98930 | -43.37146 | 10 ft | 4 kts | 192° |
| 2026-05-06 00:03 | -22.98963 | -43.37149 | 10 ft | 6 kts | 178° |
| 2026-05-06 00:04 | -22.99015 | -43.37150 | 10 ft | 8 kts | 180° |
| 2026-05-06 00:04 | -22.99070 | -43.37158 | 10 ft | 8 kts | 212° |
| 2026-05-06 00:04 | -22.99080 | -43.37212 | 9 ft | 8 kts | 277° |
| 2026-05-06 00:04 | -22.99048 | -43.37236 | 9 ft | 4 kts | 359° |
| 2026-05-06 00:06 | -22.99017 | -43.37239 | 10 ft | 23 kts | 358° |
| 2026-05-06 00:06 | -22.98712 | -43.37238 | 72 ft | 51 kts | 352° |
| 2026-05-06 00:06 | -22.98418 | -43.37426 | 209 ft | 53 kts | 306° |
| 2026-05-06 00:07 | -22.98196 | -43.37760 | 346 ft | 57 kts | 310° |
| 2026-05-06 00:07 | -22.97991 | -43.38114 | 495 ft | 59 kts | 287° |
| 2026-05-06 00:07 | -22.97999 | -43.38538 | 636 ft | 63 kts | 244° |
| 2026-05-06 00:07 | -22.98149 | -43.39013 | 795 ft | 71 kts | 249° |
| 2026-05-06 00:08 | -22.98371 | -43.39529 | 943 ft | 82 kts | 243° |
| 2026-05-06 00:08 | -22.98659 | -43.40155 | 1048 ft | 98 kts | 239° |
| 2026-05-06 00:08 | -22.98999 | -43.40827 | 1222 ft | 104 kts | 238° |
| 2026-05-06 00:08 | -22.99379 | -43.41537 | 1401 ft | 113 kts | 238° |
| 2026-05-06 00:09 | -22.99795 | -43.42285 | 1577 ft | 117 kts | 237° |
| 2026-05-06 00:09 | -23.00222 | -43.43033 | 1754 ft | 117 kts | 236° |
| 2026-05-06 00:09 | -23.00654 | -43.43767 | 1929 ft | 114 kts | 236° |
| 2026-05-06 00:09 | -23.01083 | -43.44477 | 2101 ft | 114 kts | 235° |
| 2026-05-06 00:10 | -23.01527 | -43.45189 | 2269 ft | 114 kts | 235° |
| 2026-05-06 00:10 | -23.01976 | -43.45891 | 2430 ft | 113 kts | 234° |
| 2026-05-06 00:10 | -23.02433 | -43.46585 | 2616 ft | 112 kts | 233° |
| 2026-05-06 00:10 | -23.02845 | -43.47299 | 2774 ft | 112 kts | 252° |
| 2026-05-06 00:11 | -23.02830 | -43.48127 | 2941 ft | 110 kts | 274° |
| 2026-05-06 00:11 | -23.02781 | -43.48984 | 3000 ft | 120 kts | 274° |
| 2026-05-06 00:11 | -23.02672 | -43.49907 | 3006 ft | 126 kts | 285° |
| 2026-05-06 00:11 | -23.02433 | -43.50833 | 3016 ft | 129 kts | 285° |
| 2026-05-06 00:12 | -23.02190 | -43.51778 | 3014 ft | 130 kts | 285° |
| 2026-05-06 00:12 | -23.01945 | -43.52728 | 3016 ft | 131 kts | 286° |
| 2026-05-06 00:12 | -23.01700 | -43.53687 | 3014 ft | 132 kts | 285° |
| 2026-05-06 00:12 | -23.01461 | -43.54623 | 3019 ft | 130 kts | 285° |
| 2026-05-06 00:13 | -23.01219 | -43.55573 | 3037 ft | 131 kts | 285° |
| 2026-05-06 00:13 | -23.00975 | -43.56530 | 3038 ft | 132 kts | 285° |
| 2026-05-06 00:13 | -23.00733 | -43.57490 | 3037 ft | 132 kts | 285° |
| 2026-05-06 00:13 | -23.00495 | -43.58457 | 3037 ft | 132 kts | 285° |
| 2026-05-06 00:14 | -23.00264 | -43.59423 | 3037 ft | 132 kts | 284° |
| 2026-05-06 00:14 | -23.00039 | -43.60390 | 3036 ft | 132 kts | 284° |
| 2026-05-06 00:14 | -22.99820 | -43.61359 | 3024 ft | 133 kts | 283° |
| 2026-05-06 00:14 | -22.99606 | -43.62341 | 3006 ft | 133 kts | 283° |
| 2026-05-06 00:15 | -22.99400 | -43.63308 | 2971 ft | 135 kts | 283° |
| 2026-05-06 00:15 | -22.99187 | -43.64342 | 2780 ft | 144 kts | 282° |
| 2026-05-06 00:15 | -22.98970 | -43.65418 | 2590 ft | 147 kts | 282° |
| 2026-05-06 00:15 | -22.98753 | -43.66510 | 2398 ft | 148 kts | 282° |
| 2026-05-06 00:16 | -22.98541 | -43.67605 | 2207 ft | 148 kts | 282° |
| 2026-05-06 00:16 | -22.98332 | -43.68699 | 2021 ft | 148 kts | 282° |
| 2026-05-06 00:16 | -22.98147 | -43.69692 | 2003 ft | 140 kts | 282° |
| 2026-05-06 00:16 | -22.97964 | -43.70711 | 2001 ft | 137 kts | 281° |
| 2026-05-06 00:17 | -22.97788 | -43.71722 | 1999 ft | 136 kts | 281° |
| 2026-05-06 00:17 | -22.97621 | -43.72733 | 1997 ft | 137 kts | 280° |
| 2026-05-06 00:17 | -22.97483 | -43.73640 | 1997 ft | 136 kts | 280° |
| 2026-05-06 00:17 | -22.97327 | -43.74644 | 1993 ft | 135 kts | 281° |
| 2026-05-06 00:18 | -22.97169 | -43.75655 | 1993 ft | 136 kts | 281° |
| 2026-05-06 00:18 | -22.97013 | -43.76652 | 1991 ft | 135 kts | 281° |
| 2026-05-06 00:18 | -22.96855 | -43.77660 | 1992 ft | 136 kts | 281° |
| 2026-05-06 00:18 | -22.96698 | -43.78661 | 1989 ft | 133 kts | 281° |
| 2026-05-06 00:19 | -22.96543 | -43.79652 | 1995 ft | 134 kts | 281° |
| 2026-05-06 00:19 | -22.96386 | -43.80654 | 1992 ft | 135 kts | 282° |
| 2026-05-06 00:19 | -22.96228 | -43.81651 | 1993 ft | 135 kts | 281° |
| 2026-05-06 00:19 | -22.96071 | -43.82657 | 1997 ft | 135 kts | 281° |
| 2026-05-06 00:20 | -22.95919 | -43.83619 | 1996 ft | 136 kts | 280° |
| 2026-05-06 00:20 | -22.95761 | -43.84627 | 1997 ft | 135 kts | 280° |
| 2026-05-06 00:20 | -22.95603 | -43.85634 | 1997 ft | 135 kts | 280° |
| 2026-05-06 00:20 | -22.95444 | -43.86642 | 1998 ft | 135 kts | 280° |
| 2026-05-06 00:21 | -22.95286 | -43.87645 | 1997 ft | 135 kts | 280° |
| 2026-05-06 00:21 | -22.95128 | -43.88649 | 1997 ft | 135 kts | 280° |
| 2026-05-06 00:21 | -22.94970 | -43.89653 | 2000 ft | 136 kts | 280° |
| 2026-05-06 00:21 | -22.94813 | -43.90640 | 1993 ft | 131 kts | 280° |
| 2026-05-06 00:22 | -22.94661 | -43.91611 | 2042 ft | 132 kts | 279° |
| 2026-05-06 00:22 | -22.94506 | -43.92592 | 1980 ft | 131 kts | 279° |
| 2026-05-06 00:22 | -22.94353 | -43.93562 | 1980 ft | 130 kts | 279° |
| 2026-05-06 00:22 | -22.94200 | -43.94532 | 1981 ft | 130 kts | 279° |
| 2026-05-06 00:23 | -22.94049 | -43.95502 | 1850 ft | 127 kts | 279° |
| 2026-05-06 00:23 | -22.93901 | -43.96405 | 1501 ft | 121 kts | 279° |
| 2026-05-06 00:23 | -22.93755 | -43.97284 | 1198 ft | 115 kts | 279° |
| 2026-05-06 00:23 | -22.93621 | -43.98173 | 812 ft | 119 kts | 277° |
| 2026-05-06 00:24 | -22.93514 | -43.99036 | 462 ft | 112 kts | 271° |
| 2026-05-06 00:24 | -22.93455 | -43.99795 | 323 ft | 92 kts | 296° |
| 2026-05-06 00:24 | -22.92958 | -43.99852 | 309 ft | 83 kts | 27° |
| 2026-05-06 00:24 | -22.92485 | -43.99593 | 420 ft | 73 kts | 46° |
| 2026-05-06 00:25 | -22.92078 | -43.99562 | 567 ft | 91 kts | 263° |
| 2026-05-06 00:25 | -22.92622 | -43.99863 | 477 ft | 93 kts | 190° |
| 2026-05-06 00:25 | -22.93186 | -43.99920 | 485 ft | 82 kts | 176° |
| 2026-05-06 00:25 | -22.93646 | -44.00237 | 610 ft | 99 kts | 264° |
| 2026-05-06 00:26 | -22.93414 | -44.00969 | 845 ft | 96 kts | 283° |
| 2026-05-06 00:26 | -22.93323 | -44.01671 | 996 ft | 103 kts | 269° |
| 2026-05-06 00:26 | -22.93224 | -44.02493 | 660 ft | 118 kts | 284° |
| 2026-05-06 00:26 | -22.93008 | -44.03295 | 388 ft | 104 kts | 272° |
| 2026-05-06 00:27 | -22.93077 | -44.04021 | 344 ft | 85 kts | 247° |
| 2026-05-06 00:27 | -22.93261 | -44.04633 | 521 ft | 90 kts | 271° |
| 2026-05-06 00:27 | -22.93261 | -44.05317 | 751 ft | 86 kts | 255° |
| 2026-05-06 00:27 | -22.93364 | -44.05940 | 965 ft | 84 kts | 262° |
| 2026-05-06 00:28 | -22.93410 | -44.06665 | 801 ft | 109 kts | 262° |
| 2026-05-06 00:28 | -22.93469 | -44.07407 | 595 ft | 87 kts | 264° |
| 2026-05-06 00:28 | -22.93488 | -44.08112 | 152 ft | 100 kts | 267° |
| 2026-05-06 00:28 | -22.93491 | -44.08819 | -15 ft | 81 kts | 264° |
| 2026-05-06 00:29 | -22.93505 | -44.09246 | -11 ft | 38 kts | 271° |
| 2026-05-06 00:29 | -22.93503 | -44.09467 | -12 ft | 19 kts | 264° |
| 2026-05-06 00:29 | -22.93511 | -44.09554 | -10 ft | 6 kts | 244° |
| 2026-05-06 00:29 | -22.93518 | -44.09569 | -12 ft | 0 kts | 244° |